createdAt,value
2019-05-02T00:01:29.183Z,88.34
2019-05-02T00:03:58.684Z,89.32
2019-05-02T00:06:28.354Z,89.55
2019-05-02T00:08:57.642Z,89.62
2019-05-02T00:11:28.597Z,89.43
2019-05-02T00:13:57.841Z,89.08
2019-05-02T00:16:28.141Z,89.61
2019-05-02T00:18:57.686Z,90.67
2019-05-02T00:21:28.427Z,91.71
2019-05-02T00:23:59.136Z,92.18
2019-05-02T00:26:28.501Z,92.07
2019-05-02T00:28:57.945Z,91.57
2019-05-02T00:31:27.507Z,91.02
2019-05-02T00:33:56.606Z,90.61
2019-05-02T00:36:25.805Z,90.75
2019-05-02T00:38:54.941Z,90.46
2019-05-02T00:41:24.081Z,90.44
2019-05-02T00:43:53.222Z,90.59
2019-05-02T00:46:22.480Z,89.82
2019-05-02T00:48:59.641Z,89.59
2019-05-02T00:51:28.765Z,89.62
2019-05-02T00:53:58.168Z,89.53
2019-05-02T00:56:27.320Z,89.78
2019-05-02T00:58:56.459Z,90.08
2019-05-02T01:01:45.065Z,90.43
2019-05-02T01:04:23.254Z,90.98
2019-05-02T01:06:53.669Z,90.68
2019-05-02T01:09:22.800Z,91.40
2019-05-02T01:11:51.947Z,92.24
2019-05-02T01:14:21.094Z,93.10
2019-05-02T01:16:54.421Z,93.83
2019-05-02T01:19:21.436Z,94.11
2019-05-02T01:21:50.655Z,94.22
2019-05-02T01:24:19.781Z,93.93
2019-05-02T01:27:04.660Z,93.68
2019-05-02T01:29:41.703Z,93.45
2019-05-02T01:32:30.073Z,93.10
2019-05-02T01:35:17.269Z,92.34
2019-05-02T01:38:14.680Z,92.27
2019-05-02T01:40:48.109Z,91.91
2019-05-02T01:43:27.260Z,92.42
2019-05-02T01:45:56.425Z,91.90
2019-05-02T01:48:26.291Z,92.04
2019-05-02T01:50:55.451Z,91.69
2019-05-02T01:53:32.332Z,90.83
2019-05-02T01:55:57.725Z,90.60
2019-05-02T01:58:27.756Z,90.74
2019-05-02T02:00:57.005Z,92.23
2019-05-02T02:03:26.146Z,93.67
2019-05-02T02:05:55.463Z,93.42
2019-05-02T02:08:27.365Z,92.79
2019-05-02T02:10:58.128Z,92.65
2019-05-02T02:13:31.235Z,93.05
2019-05-02T02:16:00.142Z,93.63
2019-05-02T02:18:30.354Z,94.45
2019-05-02T02:21:25.668Z,94.20
2019-05-02T02:24:09.277Z,93.48
2019-05-02T02:26:38.497Z,93.39
2019-05-02T02:29:09.199Z,94.08
2019-05-02T02:31:39.716Z,93.96
2019-05-02T02:34:09.463Z,94.19
2019-05-02T02:36:38.635Z,94.16
2019-05-02T02:39:14.213Z,94.42
2019-05-02T02:41:39.297Z,93.71
2019-05-02T02:44:33.562Z,93.78
2019-05-02T02:47:01.079Z,93.84
2019-05-02T02:49:30.205Z,94.15
2019-05-02T02:52:04.684Z,94.24
2019-05-02T02:54:30.427Z,93.99
2019-05-02T02:56:59.612Z,93.01
2019-05-02T02:59:28.743Z,93.40
2019-05-02T03:02:08.653Z,93.87
2019-05-02T03:04:28.884Z,94.33
2019-05-02T03:06:58.095Z,94.42
2019-05-02T03:09:29.058Z,94.89
2019-05-02T03:12:16.248Z,94.33
2019-05-02T03:14:50.281Z,94.63
2019-05-02T03:17:26.538Z,94.40
2019-05-02T03:19:54.370Z,93.86
2019-05-02T03:22:21.492Z,95.37
2019-05-02T03:24:50.679Z,96.21
2019-05-02T03:27:20.073Z,96.59
2019-05-02T03:29:49.432Z,96.66
2019-05-02T03:32:36.483Z,97.02
2019-05-02T03:35:07.042Z,97.86
2019-05-02T03:37:36.278Z,97.95
2019-05-02T03:40:05.973Z,98.11
2019-05-02T03:42:43.682Z,98.24
2019-05-02T03:45:06.151Z,97.82
2019-05-02T03:47:37.078Z,96.32
2019-05-02T03:50:09.469Z,96.49
2019-05-02T03:52:43.460Z,96.35
2019-05-02T03:55:08.579Z,95.38
2019-05-02T03:57:41.734Z,94.64
2019-05-02T04:00:13.817Z,94.93
2019-05-02T04:02:40.028Z,94.74
2019-05-02T04:05:09.422Z,94.15
2019-05-02T04:07:40.583Z,94.68
2019-05-02T04:10:13.382Z,95.56
2019-05-02T04:12:41.632Z,95.77
2019-05-02T04:15:10.806Z,95.27
2019-05-02T04:17:41.846Z,94.83
2019-05-02T04:20:12.703Z,95.30
2019-05-02T04:22:48.505Z,95.18
2019-05-02T04:25:13.339Z,95.31
2019-05-02T04:27:42.954Z,94.49
2019-05-02T04:30:14.185Z,94.73
2019-05-02T04:32:49.628Z,94.86
2019-05-02T04:35:14.941Z,93.63
2019-05-02T04:37:44.130Z,93.26
2019-05-02T04:40:13.324Z,94.01
2019-05-02T04:42:42.426Z,92.39
2019-05-02T04:45:21.701Z,92.06
2019-05-02T04:47:42.780Z,92.68
2019-05-02T04:50:18.223Z,93.43
2019-05-02T04:52:48.338Z,92.96
2019-05-02T04:55:22.995Z,92.83
2019-05-02T04:57:48.060Z,93.14
2019-05-02T05:00:18.815Z,92.12
2019-05-02T05:02:49.668Z,91.89
2019-05-02T05:05:25.662Z,92.19
2019-05-02T05:07:49.870Z,91.96
2019-05-02T05:10:19.055Z,90.95
2019-05-02T05:12:48.232Z,90.64
2019-05-02T05:15:33.760Z,90.72
2019-05-02T05:17:50.080Z,90.53
2019-05-02T05:20:19.232Z,90.67
2019-05-02T05:22:48.600Z,90.53
2019-05-02T05:25:23.246Z,90.94
2019-05-02T05:27:57.236Z,89.87
2019-05-02T05:30:23.373Z,89.28
2019-05-02T05:32:52.557Z,88.51
2019-05-02T05:35:21.711Z,86.93
2019-05-02T05:37:53.143Z,85.88
2019-05-02T05:40:22.756Z,85.34
2019-05-02T05:42:52.780Z,84.74
2019-05-02T05:45:21.945Z,84.97
2019-05-02T05:47:52.493Z,84.02
2019-05-02T05:50:24.358Z,84.20
2019-05-02T05:52:53.588Z,83.29
2019-05-02T05:55:24.388Z,82.86
2019-05-02T05:57:59.955Z,82.05
2019-05-02T06:00:25.075Z,81.13
2019-05-02T06:03:01.367Z,81.70
2019-05-02T06:05:27.177Z,81.56
2019-05-02T06:07:57.534Z,82.12
2019-05-02T06:10:26.785Z,81.11
2019-05-02T06:12:56.257Z,81.94
2019-05-02T06:15:25.419Z,80.27
2019-05-02T06:17:54.671Z,79.73
2019-05-02T06:20:25.710Z,79.54
2019-05-02T06:22:59.553Z,78.56
2019-05-02T06:25:34.017Z,78.79
2019-05-02T06:28:00.235Z,78.65
2019-05-02T06:30:31.042Z,77.81
2019-05-02T06:32:58.790Z,78.20
2019-05-02T06:35:27.934Z,77.59
2019-05-02T06:37:57.129Z,77.02
2019-05-02T06:40:26.385Z,76.82
2019-05-02T06:43:09.710Z,77.12
2019-05-02T06:45:53.279Z,77.82
2019-05-02T06:48:23.547Z,77.13
2019-05-02T06:50:52.693Z,76.18
2019-05-02T06:53:22.109Z,74.96
2019-05-02T06:55:51.343Z,73.45
2019-05-02T06:58:37.113Z,73.10
2019-05-02T07:01:06.640Z,71.25
2019-05-02T07:03:35.965Z,68.97
2019-05-02T07:06:07.622Z,67.21
2019-05-02T07:08:36.220Z,66.14
2019-05-02T07:11:05.576Z,66.44
2019-05-02T07:13:36.287Z,66.15
2019-05-02T07:16:30.310Z,65.69
2019-05-02T07:18:49.963Z,65.36
2019-05-02T07:21:23.240Z,66.78
2019-05-02T07:23:53.529Z,69.91
2019-05-02T07:26:23.086Z,71.23
2019-05-02T07:28:51.883Z,74.28
2019-05-02T07:31:23.558Z,74.41
2019-05-02T07:33:52.792Z,73.67
2019-05-02T07:36:21.994Z,74.56
2019-05-02T07:38:51.158Z,74.99
2019-05-02T07:41:24.100Z,74.62
2019-05-02T07:43:52.157Z,72.17
2019-05-02T07:46:22.448Z,71.49
2019-05-02T07:48:54.482Z,71.10
2019-05-02T07:51:22.796Z,73.46
2019-05-02T07:53:52.002Z,72.47
2019-05-02T07:56:21.152Z,71.09
2019-05-02T07:58:50.328Z,72.51
2019-05-02T08:01:19.525Z,73.40
2019-05-02T08:03:48.711Z,73.00
2019-05-02T08:06:17.903Z,73.40
2019-05-02T08:08:47.100Z,71.79
2019-05-02T08:11:16.370Z,71.11
2019-05-02T08:13:49.521Z,71.67
2019-05-02T08:16:16.451Z,71.94
2019-05-02T08:18:45.743Z,69.97
2019-05-02T08:21:14.958Z,70.42
2019-05-02T08:23:44.128Z,69.54
2019-05-02T08:26:16.305Z,67.64
2019-05-02T08:28:56.255Z,66.70
2019-05-02T08:31:25.480Z,68.09
2019-05-02T08:33:54.742Z,67.76
2019-05-02T08:36:23.990Z,67.25
2019-05-02T08:38:54.064Z,69.25
2019-05-02T08:41:24.154Z,69.17
2019-05-02T08:43:53.343Z,62.32
2019-05-02T08:46:22.553Z,62.32
2019-05-02T08:48:51.762Z,59.26
2019-05-02T08:51:21.197Z,58.42
2019-05-02T08:53:52.116Z,55.84
2019-05-02T08:56:21.767Z,54.59
2019-05-02T08:58:52.193Z,51.35
2019-05-02T09:01:34.304Z,53.91
2019-05-02T09:03:56.914Z,56.58
2019-05-02T09:06:24.185Z,58.37
2019-05-02T09:08:53.475Z,56.25
2019-05-02T09:11:22.677Z,56.59
2019-05-02T09:13:52.579Z,57.29
2019-05-02T09:16:28.656Z,57.87
2019-05-02T09:18:54.143Z,54.18
2019-05-02T09:21:26.840Z,55.21
2019-05-02T09:23:54.433Z,52.57
2019-05-02T09:26:35.031Z,51.42
2019-05-02T09:28:56.327Z,50.94
2019-05-02T09:31:25.654Z,52.33
2019-05-02T09:33:55.679Z,53.23
2019-05-02T09:36:25.163Z,53.72
2019-05-02T09:38:57.551Z,52.26
2019-05-02T09:41:27.034Z,50.80
2019-05-02T09:43:56.564Z,51.47
2019-05-02T09:46:25.848Z,52.44
2019-05-02T09:48:57.121Z,50.08
2019-05-02T09:51:25.999Z,52.44
2019-05-02T09:53:57.018Z,53.95
2019-05-02T09:56:26.072Z,51.78
2019-05-02T09:59:06.315Z,50.08
2019-05-02T10:01:45.792Z,51.37
2019-05-02T10:04:15.022Z,51.17
2019-05-02T10:06:44.205Z,48.74
2019-05-02T10:09:13.395Z,49.77
2019-05-02T10:11:42.678Z,47.68
2019-05-02T10:14:12.861Z,47.61
2019-05-02T10:16:42.598Z,46.01
2019-05-02T10:19:13.565Z,47.37
2019-05-02T10:21:47.052Z,47.71
2019-05-02T10:24:14.245Z,47.00
2019-05-02T10:26:43.414Z,47.47
2019-05-02T10:29:12.835Z,46.35
2019-05-02T10:31:42.385Z,45.88
2019-05-02T10:34:16.275Z,44.78
2019-05-02T10:36:45.216Z,45.59
2019-05-02T10:39:15.843Z,42.68
2019-05-02T10:41:45.009Z,43.60
2019-05-02T10:44:14.207Z,43.49
2019-05-02T10:46:57.768Z,44.47
2019-05-02T10:49:32.192Z,45.98
2019-05-02T10:52:02.589Z,43.27
2019-05-02T10:54:33.826Z,45.63
2019-05-02T10:57:02.779Z,43.96
2019-05-02T10:59:32.794Z,47.71
2019-05-02T11:02:10.307Z,47.59
2019-05-02T11:04:44.173Z,48.59
2019-05-02T11:07:17.079Z,47.45
2019-05-02T11:09:44.378Z,46.85
2019-05-02T11:12:24.297Z,48.02
2019-05-02T11:15:02.170Z,45.93
2019-05-02T11:17:36.477Z,46.81
2019-05-02T11:20:09.015Z,46.28
2019-05-02T11:22:38.285Z,44.84
2019-05-02T11:25:07.559Z,45.96
2019-05-02T11:27:36.875Z,48.07
2019-05-02T11:30:07.474Z,46.96
2019-05-02T11:32:41.634Z,47.31
2019-05-02T11:35:12.199Z,48.54
2019-05-02T11:37:42.262Z,48.37
2019-05-02T11:40:12.888Z,48.70
2019-05-02T11:42:42.230Z,48.81
2019-05-02T11:45:12.209Z,50.22
2019-05-02T11:47:42.273Z,47.23
2019-05-02T11:50:12.019Z,44.25
2019-05-02T11:52:42.431Z,47.38
2019-05-02T11:55:12.977Z,45.89
2019-05-02T11:57:42.706Z,43.72
2019-05-02T12:00:12.772Z,44.28
2019-05-02T12:03:04.014Z,45.98
2019-05-02T12:05:39.284Z,43.37
2019-05-02T12:08:09.592Z,45.28
2019-05-02T12:10:39.607Z,45.38
2019-05-02T12:13:11.921Z,46.47
2019-05-02T12:15:42.121Z,45.56
2019-05-02T12:18:12.092Z,45.46
2019-05-02T12:20:42.536Z,45.01
2019-05-02T12:23:13.007Z,43.89
2019-05-02T12:25:42.531Z,42.81
2019-05-02T12:28:12.109Z,46.15
2019-05-02T12:30:42.064Z,43.11
2019-05-02T12:33:12.394Z,43.39
2019-05-02T12:35:43.269Z,45.59
2019-05-02T12:38:12.868Z,46.17
2019-05-02T12:40:42.336Z,43.92
2019-05-02T12:43:12.737Z,40.93
2019-05-02T12:45:42.262Z,39.43
2019-05-02T12:48:12.952Z,39.54
2019-05-02T12:50:42.296Z,41.67
2019-05-02T12:53:12.603Z,41.85
2019-05-02T12:55:42.253Z,42.54
2019-05-02T12:58:12.703Z,42.97
2019-05-02T13:00:43.079Z,42.76
2019-05-02T13:03:31.804Z,42.47
2019-05-02T13:06:03.172Z,42.52
2019-05-02T13:08:32.417Z,42.13
2019-05-02T13:11:22.250Z,41.91
2019-05-02T13:13:53.330Z,42.42
2019-05-02T13:16:22.766Z,42.20
2019-05-02T13:18:52.080Z,40.30
2019-05-02T13:21:41.464Z,40.19
2019-05-02T13:24:27.309Z,40.93
2019-05-02T13:26:59.401Z,42.47
2019-05-02T13:29:24.963Z,42.94
2019-05-02T13:32:19.024Z,44.83
2019-05-02T13:35:12.718Z,45.50
2019-05-02T13:37:42.483Z,45.59
2019-05-02T13:40:22.590Z,45.50
2019-05-02T13:42:52.351Z,45.17
2019-05-02T13:45:34.823Z,44.38
2019-05-02T13:48:04.352Z,44.83
2019-05-02T13:50:33.563Z,44.10
2019-05-02T13:53:03.210Z,43.78
2019-05-02T13:55:37.450Z,45.03
2019-05-02T13:58:06.608Z,45.20
2019-05-02T14:00:44.405Z,41.46
2019-05-02T14:03:13.905Z,40.01
2019-05-02T14:05:50.759Z,39.88
2019-05-02T14:08:37.947Z,41.89
2019-05-02T14:11:43.381Z,41.56
2019-05-02T14:14:12.474Z,41.43
2019-05-02T14:16:42.062Z,40.36
2019-05-02T14:19:12.632Z,40.18
2019-05-02T14:21:42.217Z,40.18
2019-05-02T14:24:11.868Z,40.64
2019-05-02T14:26:43.259Z,39.17
2019-05-02T14:29:16.104Z,37.69
2019-05-02T14:31:43.033Z,38.49
2019-05-02T14:34:42.586Z,39.45
2019-05-02T14:37:11.975Z,39.24
2019-05-02T14:39:41.812Z,38.19
2019-05-02T14:42:15.300Z,38.66
2019-05-02T14:45:04.071Z,37.82
2019-05-02T14:47:18.151Z,36.63
2019-05-02T14:49:44.625Z,36.35
2019-05-02T14:52:13.813Z,33.98
2019-05-02T14:54:47.781Z,34.05
2019-05-02T14:57:17.032Z,36.54
2019-05-02T14:59:50.408Z,37.92
2019-05-02T15:02:39.267Z,37.24
2019-05-02T15:05:08.838Z,37.66
2019-05-02T15:07:38.528Z,38.61
2019-05-02T15:10:08.005Z,37.67
2019-05-02T15:12:37.353Z,37.36
2019-05-02T15:15:08.951Z,38.36
2019-05-02T15:17:41.883Z,36.99
2019-05-02T15:20:12.988Z,37.98
2019-05-02T15:22:42.550Z,37.54
2019-05-02T15:25:13.559Z,37.38
2019-05-02T15:27:45.143Z,36.40
2019-05-02T15:30:15.962Z,35.87
2019-05-02T15:32:54.748Z,35.06
2019-05-02T15:35:28.381Z,33.66
2019-05-02T15:38:02.611Z,34.28
2019-05-02T15:43:02.419Z,34.68
2019-05-02T15:45:29.310Z,34.85
2019-05-02T15:47:58.682Z,35.83
2019-05-02T15:50:29.097Z,35.74
2019-05-02T15:53:17.513Z,35.86
2019-05-02T15:55:46.901Z,36.28
2019-05-02T15:58:22.948Z,36.95
2019-05-02T16:00:56.607Z,37.60
2019-05-02T16:03:45.475Z,37.57
2019-05-02T16:06:16.360Z,37.78
2019-05-02T16:08:46.421Z,38.55
2019-05-02T16:11:17.342Z,38.96
2019-05-02T16:13:52.738Z,39.17
2019-05-02T16:16:18.947Z,39.75
2019-05-02T16:18:48.128Z,40.26
2019-05-02T16:21:28.436Z,40.87
2019-05-02T16:24:14.717Z,41.18
2019-05-02T16:26:46.758Z,41.72
2019-05-02T16:29:19.472Z,46.81
2019-05-02T16:31:47.321Z,49.68
2019-05-02T16:34:16.599Z,57.55
2019-05-02T16:36:45.774Z,66.51
2019-05-02T16:39:15.398Z,70.40
2019-05-02T16:41:49.074Z,75.13
2019-05-02T16:44:15.729Z,78.66
2019-05-02T16:46:44.995Z,81.27
2019-05-02T16:49:17.083Z,80.55
2019-05-02T16:51:45.525Z,83.04
2019-05-02T16:54:14.743Z,84.65
2019-05-02T16:56:45.922Z,84.68
2019-05-02T16:59:16.980Z,87.98
2019-05-02T17:01:47.496Z,87.96
2019-05-02T17:04:16.920Z,90.23
2019-05-02T17:06:46.269Z,91.93
2019-05-02T17:09:28.797Z,91.75
2019-05-02T17:11:59.311Z,91.63
2019-05-02T17:14:28.620Z,93.09
2019-05-02T17:16:58.982Z,91.92
2019-05-02T17:19:33.357Z,91.72
2019-05-02T17:21:59.141Z,92.09
2019-05-02T17:24:28.578Z,94.40
2019-05-02T17:26:57.852Z,93.30
2019-05-02T17:29:27.173Z,91.49
2019-05-02T17:31:59.242Z,89.96
2019-05-02T17:34:30.242Z,89.10
2019-05-02T17:36:59.187Z,90.41
2019-05-02T17:39:30.890Z,90.98
2019-05-02T17:42:00.934Z,87.69
2019-05-02T17:44:31.097Z,88.60
2019-05-02T17:47:01.798Z,90.14
2019-05-02T17:49:36.679Z,91.54
2019-05-02T17:52:26.885Z,90.23
2019-05-02T17:54:57.376Z,90.59
2019-05-02T17:57:28.649Z,91.09
2019-05-02T17:59:57.707Z,91.89
2019-05-02T18:02:26.939Z,92.37
2019-05-02T18:04:56.099Z,92.84
2019-05-02T18:07:31.920Z,94.03
2019-05-02T18:09:56.208Z,93.12
2019-05-02T18:12:25.714Z,94.34
2019-05-02T18:14:59.084Z,95.30
2019-05-02T18:17:27.579Z,94.83
2019-05-02T18:20:02.212Z,94.61
2019-05-02T18:22:28.088Z,93.71
2019-05-02T18:24:57.385Z,93.75
2019-05-02T18:27:26.673Z,92.96
2019-05-02T18:29:55.955Z,90.98
2019-05-02T18:32:26.248Z,91.68
2019-05-02T18:34:56.906Z,91.01
2019-05-02T18:37:26.531Z,91.32
2019-05-02T18:39:56.118Z,91.67
2019-05-02T18:42:25.686Z,91.72
2019-05-02T18:44:54.934Z,90.94
2019-05-02T18:47:24.890Z,90.76
2019-05-02T18:50:00.671Z,92.29
2019-05-02T18:52:35.648Z,92.15
2019-05-02T18:54:56.215Z,92.05
2019-05-02T18:57:26.077Z,91.88
2019-05-02T18:59:56.458Z,91.62
2019-05-02T19:02:31.181Z,92.15
2019-05-02T19:04:57.327Z,92.91
2019-05-02T19:07:33.209Z,93.41
2019-05-02T19:09:58.846Z,92.51
2019-05-02T19:12:28.614Z,92.89
2019-05-02T19:15:03.171Z,92.71
2019-05-02T19:17:28.797Z,93.47
2019-05-02T19:19:58.168Z,93.27
2019-05-02T19:22:27.363Z,92.97
2019-05-02T19:24:56.720Z,92.88
2019-05-02T19:27:43.622Z,92.65
2019-05-02T19:30:13.413Z,93.14
2019-05-02T19:32:42.611Z,93.35
2019-05-02T19:35:11.904Z,92.69
2019-05-02T19:37:46.040Z,93.80
2019-05-02T19:40:14.923Z,93.00
2019-05-02T19:42:45.033Z,94.37
2019-05-02T19:45:16.880Z,93.54
2019-05-02T19:48:04.230Z,93.86
2019-05-02T19:50:43.983Z,94.07
2019-05-02T19:53:18.124Z,94.44
2019-05-02T19:55:43.065Z,95.46
2019-05-02T19:58:12.493Z,95.75
2019-05-02T20:00:46.081Z,95.66
2019-05-02T20:03:13.697Z,95.73
2019-05-02T20:05:43.917Z,95.30
2019-05-02T20:08:14.827Z,95.21
2019-05-02T20:10:44.024Z,95.41
2019-05-02T20:13:13.366Z,95.67
2019-05-02T20:15:47.122Z,95.86
2019-05-02T20:18:16.305Z,96.21
2019-05-02T20:21:06.383Z,96.70
2019-05-02T20:23:35.904Z,97.02
2019-05-02T20:26:09.400Z,97.21
2019-05-02T20:28:36.189Z,98.05
2019-05-02T20:31:05.517Z,98.37
2019-05-02T20:33:34.853Z,99.22
2019-05-02T20:36:04.179Z,98.79
2019-05-02T20:38:33.403Z,99.18
2019-05-02T20:41:03.023Z,99.30
2019-05-02T20:43:32.479Z,99.65
2019-05-02T20:46:02.640Z,99.39
2019-05-02T20:48:32.365Z,100.00
2019-05-02T20:51:02.717Z,100.00
2019-05-02T20:53:34.183Z,100.00
2019-05-02T20:56:02.899Z,99.87
2019-05-02T20:58:32.604Z,100.00
2019-05-02T21:01:08.562Z,99.29
2019-05-02T21:03:32.772Z,99.24
2019-05-02T21:06:12.228Z,99.77
2019-05-02T21:09:02.221Z,99.86
2019-05-02T21:11:32.394Z,99.74
2019-05-02T21:14:01.834Z,100.00
2019-05-02T21:16:32.247Z,100.00
2019-05-02T21:19:02.236Z,100.00
2019-05-02T21:21:32.919Z,100.00
2019-05-02T21:24:02.196Z,100.00
2019-05-02T21:26:32.873Z,100.00
2019-05-02T21:29:02.204Z,100.00
2019-05-02T21:31:31.898Z,100.00
2019-05-02T21:34:02.585Z,100.00
2019-05-02T21:36:32.061Z,100.00
2019-05-02T21:39:02.776Z,100.00
2019-05-02T21:41:33.078Z,100.00
2019-05-02T21:44:02.555Z,100.00
2019-05-02T21:46:31.902Z,100.00
2019-05-02T21:49:01.181Z,100.00
2019-05-02T21:51:46.483Z,100.00
2019-05-02T21:54:25.732Z,100.00
2019-05-02T21:57:02.636Z,100.00
2019-05-02T21:59:31.874Z,100.00
2019-05-02T22:02:02.401Z,100.00
2019-05-02T22:04:31.917Z,100.00
2019-05-02T22:07:01.050Z,100.00
2019-05-02T22:09:32.165Z,100.00
2019-05-02T22:12:01.572Z,100.00
2019-05-02T22:14:32.712Z,100.00
2019-05-02T22:17:02.301Z,100.00
2019-05-02T22:19:32.306Z,100.00
2019-05-02T22:22:01.736Z,100.00
2019-05-02T22:24:30.848Z,100.00
2019-05-02T22:27:01.802Z,100.00
2019-05-02T22:29:32.412Z,100.00
2019-05-02T22:32:02.999Z,100.00
2019-05-02T22:34:32.689Z,100.00
2019-05-02T22:37:02.573Z,100.00
2019-05-02T22:39:52.264Z,100.00
2019-05-02T22:42:21.916Z,100.00
2019-05-02T22:44:51.239Z,100.00
2019-05-02T22:47:22.597Z,100.00
2019-05-02T22:49:51.842Z,100.00
2019-05-02T22:52:21.792Z,100.00
2019-05-02T22:54:52.340Z,100.00
2019-05-02T22:57:22.609Z,100.00
2019-05-02T22:59:51.782Z,100.00
2019-05-02T23:02:21.971Z,100.00
2019-05-02T23:04:52.695Z,100.00
2019-05-02T23:07:22.296Z,100.00
2019-05-02T23:09:52.683Z,100.00
2019-05-02T23:12:24.622Z,100.00
2019-05-02T23:14:52.914Z,100.00
2019-05-02T23:17:23.164Z,100.00
2019-05-02T23:19:52.831Z,100.00
2019-05-02T23:22:22.014Z,100.00
2019-05-02T23:25:25.503Z,100.00
2019-05-02T23:27:58.336Z,100.00
2019-05-02T23:30:27.540Z,100.00
2019-05-02T23:32:56.732Z,100.00
2019-05-02T23:35:25.888Z,100.00
2019-05-02T23:37:55.044Z,100.00
2019-05-02T23:40:24.389Z,100.00
2019-05-02T23:42:53.559Z,100.00
2019-05-02T23:45:22.750Z,100.00
2019-05-02T23:47:52.773Z,100.00
2019-05-02T23:50:22.843Z,100.00
2019-05-02T23:52:52.205Z,100.00
2019-05-02T23:55:22.830Z,100.00
2019-05-02T23:57:52.374Z,100.00
